sensor_id;sensor_type;location;lat;lon;timestamp;pressure;altitude;pressure_sealevel;temperature
20289;BMP180;10303;51.960;8.372;2022-07-06T00:01:45;101302.00;;;18.40
20289;BMP180;10303;51.960;8.372;2022-07-06T00:04:11;101292.00;;;18.40
20289;BMP180;10303;51.960;8.372;2022-07-06T00:06:37;101301.00;;;18.30
20289;BMP180;10303;51.960;8.372;2022-07-06T00:09:04;101297.00;;;18.30
20289;BMP180;10303;51.960;8.372;2022-07-06T00:11:31;101300.00;;;18.20
20289;BMP180;10303;51.960;8.372;2022-07-06T00:13:57;101303.00;;;18.20
20289;BMP180;10303;51.960;8.372;2022-07-06T00:16:23;101301.00;;;18.10
20289;BMP180;10303;51.960;8.372;2022-07-06T00:18:50;101294.00;;;18.10
20289;BMP180;10303;51.960;8.372;2022-07-06T00:21:16;101300.00;;;18.00
20289;BMP180;10303;51.960;8.372;2022-07-06T00:23:43;101295.00;;;17.90
20289;BMP180;10303;51.960;8.372;2022-07-06T00:26:09;101304.00;;;17.90
20289;BMP180;10303;51.960;8.372;2022-07-06T00:28:35;101303.00;;;17.80
20289;BMP180;10303;51.960;8.372;2022-07-06T00:31:02;101300.00;;;17.80
20289;BMP180;10303;51.960;8.372;2022-07-06T00:33:27;101301.00;;;17.70
20289;BMP180;10303;51.960;8.372;2022-07-06T00:35:54;101304.00;;;17.70
20289;BMP180;10303;51.960;8.372;2022-07-06T00:38:20;101297.00;;;17.60
20289;BMP180;10303;51.960;8.372;2022-07-06T00:40:46;101305.00;;;17.50
20289;BMP180;10303;51.960;8.372;2022-07-06T00:43:12;101309.00;;;17.50
20289;BMP180;10303;51.960;8.372;2022-07-06T00:45:38;101310.00;;;17.40
20289;BMP180;10303;51.960;8.372;2022-07-06T00:48:05;101306.00;;;17.40
20289;BMP180;10303;51.960;8.372;2022-07-06T00:50:33;101303.00;;;17.30
20289;BMP180;10303;51.960;8.372;2022-07-06T00:53:02;101305.00;;;17.20
20289;BMP180;10303;51.960;8.372;2022-07-06T00:55:38;101306.00;;;17.20
20289;BMP180;10303;51.960;8.372;2022-07-06T00:58:08;101309.00;;;17.10
20289;BMP180;10303;51.960;8.372;2022-07-06T01:00:36;101311.00;;;17.10
20289;BMP180;10303;51.960;8.372;2022-07-06T01:03:02;101310.00;;;17.10
20289;BMP180;10303;51.960;8.372;2022-07-06T01:05:28;101312.00;;;17.10
20289;BMP180;10303;51.960;8.372;2022-07-06T01:07:55;101308.00;;;17.10
20289;BMP180;10303;51.960;8.372;2022-07-06T01:10:23;101311.00;;;17.00
20289;BMP180;10303;51.960;8.372;2022-07-06T01:12:49;101305.00;;;17.00
20289;BMP180;10303;51.960;8.372;2022-07-06T01:15:24;101310.00;;;16.90
20289;BMP180;10303;51.960;8.372;2022-07-06T01:17:52;101306.00;;;17.00
20289;BMP180;10303;51.960;8.372;2022-07-06T01:20:25;101312.00;;;16.90
20289;BMP180;10303;51.960;8.372;2022-07-06T01:22:54;101306.00;;;16.90
20289;BMP180;10303;51.960;8.372;2022-07-06T01:25:23;101308.00;;;16.90
20289;BMP180;10303;51.960;8.372;2022-07-06T01:27:49;101308.00;;;16.90
20289;BMP180;10303;51.960;8.372;2022-07-06T01:30:18;101304.00;;;16.90
20289;BMP180;10303;51.960;8.372;2022-07-06T01:32:45;101306.00;;;16.90
20289;BMP180;10303;51.960;8.372;2022-07-06T01:35:14;101296.00;;;16.90
20289;BMP180;10303;51.960;8.372;2022-07-06T01:37:41;101301.00;;;16.90
20289;BMP180;10303;51.960;8.372;2022-07-06T01:40:10;101311.00;;;16.90
20289;BMP180;10303;51.960;8.372;2022-07-06T01:42:37;101297.00;;;16.90
20289;BMP180;10303;51.960;8.372;2022-07-06T01:45:05;101301.00;;;16.90
20289;BMP180;10303;51.960;8.372;2022-07-06T01:47:32;101298.00;;;16.90
20289;BMP180;10303;51.960;8.372;2022-07-06T01:50:01;101297.00;;;17.00
20289;BMP180;10303;51.960;8.372;2022-07-06T01:52:30;101297.00;;;17.00
20289;BMP180;10303;51.960;8.372;2022-07-06T01:54:57;101292.00;;;17.00
20289;BMP180;10303;51.960;8.372;2022-07-06T01:57:23;101296.00;;;17.00
20289;BMP180;10303;51.960;8.372;2022-07-06T01:59:49;101306.00;;;17.00
20289;BMP180;10303;51.960;8.372;2022-07-06T02:02:16;101298.00;;;17.00
20289;BMP180;10303;51.960;8.372;2022-07-06T02:04:44;101306.00;;;17.00
20289;BMP180;10303;51.960;8.372;2022-07-06T02:07:10;101299.00;;;17.00
20289;BMP180;10303;51.960;8.372;2022-07-06T02:09:36;101296.00;;;17.00
20289;BMP180;10303;51.960;8.372;2022-07-06T02:12:03;101301.00;;;17.00
20289;BMP180;10303;51.960;8.372;2022-07-06T02:14:29;101290.00;;;17.00
20289;BMP180;10303;51.960;8.372;2022-07-06T02:16:55;101301.00;;;17.00
20289;BMP180;10303;51.960;8.372;2022-07-06T02:19:21;101304.00;;;17.00
20289;BMP180;10303;51.960;8.372;2022-07-06T02:21:47;101305.00;;;17.10
20289;BMP180;10303;51.960;8.372;2022-07-06T02:24:13;101310.00;;;17.10
20289;BMP180;10303;51.960;8.372;2022-07-06T02:26:40;101298.00;;;17.10
20289;BMP180;10303;51.960;8.372;2022-07-06T02:29:07;101306.00;;;17.10
20289;BMP180;10303;51.960;8.372;2022-07-06T02:31:33;101306.00;;;17.10
20289;BMP180;10303;51.960;8.372;2022-07-06T02:33:59;101302.00;;;17.10
20289;BMP180;10303;51.960;8.372;2022-07-06T02:36:25;101299.00;;;17.10
20289;BMP180;10303;51.960;8.372;2022-07-06T02:38:51;101298.00;;;17.10
20289;BMP180;10303;51.960;8.372;2022-07-06T02:41:17;101310.00;;;17.10
20289;BMP180;10303;51.960;8.372;2022-07-06T02:43:43;101302.00;;;17.10
20289;BMP180;10303;51.960;8.372;2022-07-06T02:46:09;101303.00;;;17.10
20289;BMP180;10303;51.960;8.372;2022-07-06T02:48:36;101304.00;;;17.10
20289;BMP180;10303;51.960;8.372;2022-07-06T02:51:03;101294.00;;;17.10
20289;BMP180;10303;51.960;8.372;2022-07-06T02:53:29;101297.00;;;17.10
20289;BMP180;10303;51.960;8.372;2022-07-06T02:55:56;101296.00;;;17.10
20289;BMP180;10303;51.960;8.372;2022-07-06T02:58:23;101295.00;;;17.10
20289;BMP180;10303;51.960;8.372;2022-07-06T03:00:49;101289.00;;;17.10
20289;BMP180;10303;51.960;8.372;2022-07-06T03:03:15;101289.00;;;17.10
20289;BMP180;10303;51.960;8.372;2022-07-06T03:05:41;101289.00;;;17.10
20289;BMP180;10303;51.960;8.372;2022-07-06T03:08:07;101300.00;;;17.10
20289;BMP180;10303;51.960;8.372;2022-07-06T03:10:35;101300.00;;;17.10
20289;BMP180;10303;51.960;8.372;2022-07-06T03:13:01;101307.00;;;17.10
20289;BMP180;10303;51.960;8.372;2022-07-06T03:15:26;101314.00;;;17.00
20289;BMP180;10303;51.960;8.372;2022-07-06T03:17:52;101323.00;;;17.00
20289;BMP180;10303;51.960;8.372;2022-07-06T03:20:19;101316.00;;;17.00
20289;BMP180;10303;51.960;8.372;2022-07-06T03:22:46;101324.00;;;17.00
20289;BMP180;10303;51.960;8.372;2022-07-06T03:25:14;101329.00;;;17.00
20289;BMP180;10303;51.960;8.372;2022-07-06T03:27:41;101337.00;;;17.00
20289;BMP180;10303;51.960;8.372;2022-07-06T03:30:08;101339.00;;;17.00
20289;BMP180;10303;51.960;8.372;2022-07-06T03:32:34;101339.00;;;16.90
20289;BMP180;10303;51.960;8.372;2022-07-06T03:35:03;101338.00;;;16.90
20289;BMP180;10303;51.960;8.372;2022-07-06T03:37:30;101337.00;;;16.90
20289;BMP180;10303;51.960;8.372;2022-07-06T03:39:56;101335.00;;;16.80
20289;BMP180;10303;51.960;8.372;2022-07-06T03:42:22;101332.00;;;16.80
20289;BMP180;10303;51.960;8.372;2022-07-06T03:44:50;101330.00;;;16.80
20289;BMP180;10303;51.960;8.372;2022-07-06T03:47:16;101326.00;;;16.70
20289;BMP180;10303;51.960;8.372;2022-07-06T03:49:42;101321.00;;;16.70
20289;BMP180;10303;51.960;8.372;2022-07-06T03:52:09;101323.00;;;16.70
20289;BMP180;10303;51.960;8.372;2022-07-06T03:54:42;101323.00;;;16.60
20289;BMP180;10303;51.960;8.372;2022-07-06T03:57:09;101321.00;;;16.60
20289;BMP180;10303;51.960;8.372;2022-07-06T03:59:37;101322.00;;;16.50
20289;BMP180;10303;51.960;8.372;2022-07-06T04:02:03;101331.00;;;16.50
20289;BMP180;10303;51.960;8.372;2022-07-06T04:04:29;101328.00;;;16.50
20289;BMP180;10303;51.960;8.372;2022-07-06T04:06:55;101336.00;;;16.50
20289;BMP180;10303;51.960;8.372;2022-07-06T04:09:21;101338.00;;;16.40
20289;BMP180;10303;51.960;8.372;2022-07-06T04:11:48;101337.00;;;16.40
20289;BMP180;10303;51.960;8.372;2022-07-06T04:14:14;101337.00;;;16.40
20289;BMP180;10303;51.960;8.372;2022-07-06T04:16:40;101343.00;;;16.40
20289;BMP180;10303;51.960;8.372;2022-07-06T04:19:07;101338.00;;;16.40
20289;BMP180;10303;51.960;8.372;2022-07-06T04:21:35;101349.00;;;16.40
20289;BMP180;10303;51.960;8.372;2022-07-06T04:24:01;101333.00;;;16.40
20289;BMP180;10303;51.960;8.372;2022-07-06T04:26:27;101339.00;;;16.40
20289;BMP180;10303;51.960;8.372;2022-07-06T04:28:55;101339.00;;;16.40
20289;BMP180;10303;51.960;8.372;2022-07-06T04:31:22;101335.00;;;16.50
20289;BMP180;10303;51.960;8.372;2022-07-06T04:33:49;101329.00;;;16.50
20289;BMP180;10303;51.960;8.372;2022-07-06T04:36:15;101341.00;;;16.50
20289;BMP180;10303;51.960;8.372;2022-07-06T04:38:43;101344.00;;;16.60
20289;BMP180;10303;51.960;8.372;2022-07-06T04:41:11;101324.00;;;16.60
20289;BMP180;10303;51.960;8.372;2022-07-06T04:43:37;101332.00;;;16.60
20289;BMP180;10303;51.960;8.372;2022-07-06T04:46:03;101325.00;;;16.60
20289;BMP180;10303;51.960;8.372;2022-07-06T04:48:33;101324.00;;;16.60
20289;BMP180;10303;51.960;8.372;2022-07-06T04:51:02;101327.00;;;16.60
20289;BMP180;10303;51.960;8.372;2022-07-06T04:53:30;101332.00;;;16.60
20289;BMP180;10303;51.960;8.372;2022-07-06T04:55:56;101332.00;;;16.70
20289;BMP180;10303;51.960;8.372;2022-07-06T04:58:23;101336.00;;;16.70
20289;BMP180;10303;51.960;8.372;2022-07-06T05:00:49;101337.00;;;16.70
20289;BMP180;10303;51.960;8.372;2022-07-06T05:03:15;101334.00;;;16.70
20289;BMP180;10303;51.960;8.372;2022-07-06T05:05:41;101338.00;;;16.80
20289;BMP180;10303;51.960;8.372;2022-07-06T05:08:07;101339.00;;;16.80
20289;BMP180;10303;51.960;8.372;2022-07-06T05:10:34;101335.00;;;16.90
20289;BMP180;10303;51.960;8.372;2022-07-06T05:13:00;101342.00;;;17.00
20289;BMP180;10303;51.960;8.372;2022-07-06T05:15:27;101340.00;;;17.00
20289;BMP180;10303;51.960;8.372;2022-07-06T05:17:53;101337.00;;;17.10
20289;BMP180;10303;51.960;8.372;2022-07-06T05:20:19;101335.00;;;17.10
20289;BMP180;10303;51.960;8.372;2022-07-06T05:22:47;101327.00;;;17.20
20289;BMP180;10303;51.960;8.372;2022-07-06T05:25:17;101330.00;;;17.30
20289;BMP180;10303;51.960;8.372;2022-07-06T05:27:43;101334.00;;;17.30
20289;BMP180;10303;51.960;8.372;2022-07-06T05:30:10;101343.00;;;17.30
20289;BMP180;10303;51.960;8.372;2022-07-06T05:32:37;101341.00;;;17.40
20289;BMP180;10303;51.960;8.372;2022-07-06T05:35:04;101342.00;;;17.40
20289;BMP180;10303;51.960;8.372;2022-07-06T05:37:30;101344.00;;;17.40
20289;BMP180;10303;51.960;8.372;2022-07-06T05:39:56;101340.00;;;17.50
20289;BMP180;10303;51.960;8.372;2022-07-06T05:42:22;101343.00;;;17.50
20289;BMP180;10303;51.960;8.372;2022-07-06T05:44:48;101336.00;;;17.50
20289;BMP180;10303;51.960;8.372;2022-07-06T05:47:14;101338.00;;;17.50
20289;BMP180;10303;51.960;8.372;2022-07-06T05:49:59;101343.00;;;17.60
20289;BMP180;10303;51.960;8.372;2022-07-06T05:52:59;101343.00;;;17.60
20289;BMP180;10303;51.960;8.372;2022-07-06T05:55:28;101336.00;;;17.60
20289;BMP180;10303;51.960;8.372;2022-07-06T05:57:55;101333.00;;;17.70
20289;BMP180;10303;51.960;8.372;2022-07-06T06:00:25;101339.00;;;17.70
20289;BMP180;10303;51.960;8.372;2022-07-06T06:02:54;101344.00;;;17.70
20289;BMP180;10303;51.960;8.372;2022-07-06T06:05:22;101345.00;;;17.70
20289;BMP180;10303;51.960;8.372;2022-07-06T06:07:50;101340.00;;;17.80
20289;BMP180;10303;51.960;8.372;2022-07-06T06:10:19;101356.00;;;17.90
20289;BMP180;10303;51.960;8.372;2022-07-06T06:12:50;101350.00;;;18.00
20289;BMP180;10303;51.960;8.372;2022-07-06T06:15:16;101346.00;;;18.10
20289;BMP180;10303;51.960;8.372;2022-07-06T06:17:43;101369.00;;;18.20
20289;BMP180;10303;51.960;8.372;2022-07-06T06:20:13;101370.00;;;18.30
20289;BMP180;10303;51.960;8.372;2022-07-06T06:22:51;101374.00;;;18.30
20289;BMP180;10303;51.960;8.372;2022-07-06T06:25:31;101380.00;;;18.30
20289;BMP180;10303;51.960;8.372;2022-07-06T06:27:58;101380.00;;;18.40
20289;BMP180;10303;51.960;8.372;2022-07-06T06:30:25;101377.00;;;18.40
20289;BMP180;10303;51.960;8.372;2022-07-06T06:33:03;101384.00;;;18.40
20289;BMP180;10303;51.960;8.372;2022-07-06T06:35:29;101391.00;;;18.50
20289;BMP180;10303;51.960;8.372;2022-07-06T06:37:55;101390.00;;;18.50
20289;BMP180;10303;51.960;8.372;2022-07-06T06:40:21;101404.00;;;18.50
20289;BMP180;10303;51.960;8.372;2022-07-06T06:42:48;101399.00;;;18.50
20289;BMP180;10303;51.960;8.372;2022-07-06T06:45:15;101392.00;;;18.50
20289;BMP180;10303;51.960;8.372;2022-07-06T06:47:41;101388.00;;;18.50
20289;BMP180;10303;51.960;8.372;2022-07-06T06:50:08;101386.00;;;18.50
20289;BMP180;10303;51.960;8.372;2022-07-06T06:52:34;101391.00;;;18.50
20289;BMP180;10303;51.960;8.372;2022-07-06T06:55:00;101402.00;;;18.50
20289;BMP180;10303;51.960;8.372;2022-07-06T06:57:27;101401.00;;;18.50
20289;BMP180;10303;51.960;8.372;2022-07-06T06:59:55;101408.00;;;18.60
20289;BMP180;10303;51.960;8.372;2022-07-06T07:02:22;101403.00;;;18.60
20289;BMP180;10303;51.960;8.372;2022-07-06T07:04:48;101399.00;;;18.70
20289;BMP180;10303;51.960;8.372;2022-07-06T07:07:14;101398.00;;;18.70
20289;BMP180;10303;51.960;8.372;2022-07-06T07:09:41;101407.00;;;18.80
20289;BMP180;10303;51.960;8.372;2022-07-06T07:12:08;101399.00;;;18.90
20289;BMP180;10303;51.960;8.372;2022-07-06T07:14:34;101399.00;;;18.90
20289;BMP180;10303;51.960;8.372;2022-07-06T07:16:59;101402.00;;;19.00
20289;BMP180;10303;51.960;8.372;2022-07-06T07:19:25;101406.00;;;19.10
20289;BMP180;10303;51.960;8.372;2022-07-06T07:21:51;101407.00;;;19.10
20289;BMP180;10303;51.960;8.372;2022-07-06T07:24:17;101413.00;;;19.20
20289;BMP180;10303;51.960;8.372;2022-07-06T07:26:43;101418.00;;;19.30
20289;BMP180;10303;51.960;8.372;2022-07-06T07:29:09;101426.00;;;19.40
20289;BMP180;10303;51.960;8.372;2022-07-06T07:31:35;101416.00;;;19.50
20289;BMP180;10303;51.960;8.372;2022-07-06T07:34:01;101406.00;;;19.50
20289;BMP180;10303;51.960;8.372;2022-07-06T07:36:27;101411.00;;;19.60
20289;BMP180;10303;51.960;8.372;2022-07-06T07:38:53;101408.00;;;19.60
20289;BMP180;10303;51.960;8.372;2022-07-06T07:41:19;101417.00;;;19.70
20289;BMP180;10303;51.960;8.372;2022-07-06T07:43:45;101408.00;;;19.70
20289;BMP180;10303;51.960;8.372;2022-07-06T07:46:11;101408.00;;;19.80
20289;BMP180;10303;51.960;8.372;2022-07-06T07:48:37;101421.00;;;19.80
20289;BMP180;10303;51.960;8.372;2022-07-06T07:51:03;101421.00;;;19.80
20289;BMP180;10303;51.960;8.372;2022-07-06T07:53:29;101421.00;;;19.80
20289;BMP180;10303;51.960;8.372;2022-07-06T07:55:55;101415.00;;;19.90
20289;BMP180;10303;51.960;8.372;2022-07-06T07:58:21;101419.00;;;19.90
20289;BMP180;10303;51.960;8.372;2022-07-06T08:00:48;101418.00;;;19.90
20289;BMP180;10303;51.960;8.372;2022-07-06T08:03:14;101420.00;;;20.00
20289;BMP180;10303;51.960;8.372;2022-07-06T08:05:40;101411.00;;;20.00
20289;BMP180;10303;51.960;8.372;2022-07-06T08:08:06;101410.00;;;20.10
20289;BMP180;10303;51.960;8.372;2022-07-06T08:10:32;101416.00;;;20.20
20289;BMP180;10303;51.960;8.372;2022-07-06T08:12:58;101405.00;;;20.30
20289;BMP180;10303;51.960;8.372;2022-07-06T08:15:25;101408.00;;;20.40
20289;BMP180;10303;51.960;8.372;2022-07-06T08:17:50;101421.00;;;20.40
20289;BMP180;10303;51.960;8.372;2022-07-06T08:20:16;101409.00;;;20.50
20289;BMP180;10303;51.960;8.372;2022-07-06T08:22:43;101420.00;;;20.60
20289;BMP180;10303;51.960;8.372;2022-07-06T08:25:10;101411.00;;;20.70
20289;BMP180;10303;51.960;8.372;2022-07-06T08:27:36;101412.00;;;20.70
20289;BMP180;10303;51.960;8.372;2022-07-06T08:30:06;101407.00;;;20.80
20289;BMP180;10303;51.960;8.372;2022-07-06T08:32:32;101403.00;;;20.90
20289;BMP180;10303;51.960;8.372;2022-07-06T08:34:58;101402.00;;;20.90
20289;BMP180;10303;51.960;8.372;2022-07-06T08:37:24;101402.00;;;21.00
20289;BMP180;10303;51.960;8.372;2022-07-06T08:39:50;101401.00;;;21.10
20289;BMP180;10303;51.960;8.372;2022-07-06T08:42:17;101402.00;;;21.30
20289;BMP180;10303;51.960;8.372;2022-07-06T08:44:44;101402.00;;;21.50
20289;BMP180;10303;51.960;8.372;2022-07-06T08:47:12;101392.00;;;21.60
20289;BMP180;10303;51.960;8.372;2022-07-06T08:49:43;101402.00;;;21.70
20289;BMP180;10303;51.960;8.372;2022-07-06T08:52:10;101398.00;;;21.70
20289;BMP180;10303;51.960;8.372;2022-07-06T08:54:38;101406.00;;;21.70
20289;BMP180;10303;51.960;8.372;2022-07-06T08:57:05;101405.00;;;21.60
20289;BMP180;10303;51.960;8.372;2022-07-06T08:59:33;101402.00;;;21.50
20289;BMP180;10303;51.960;8.372;2022-07-06T09:02:00;101401.00;;;21.40
20289;BMP180;10303;51.960;8.372;2022-07-06T09:04:27;101405.00;;;21.40
20289;BMP180;10303;51.960;8.372;2022-07-06T09:06:54;101410.00;;;21.30
20289;BMP180;10303;51.960;8.372;2022-07-06T09:09:23;101417.00;;;21.20
20289;BMP180;10303;51.960;8.372;2022-07-06T09:11:50;101416.00;;;21.20
20289;BMP180;10303;51.960;8.372;2022-07-06T09:14:17;101415.00;;;21.10
20289;BMP180;10303;51.960;8.372;2022-07-06T09:16:46;101418.00;;;21.10
20289;BMP180;10303;51.960;8.372;2022-07-06T09:19:13;101421.00;;;21.00
20289;BMP180;10303;51.960;8.372;2022-07-06T09:21:39;101413.00;;;20.90
20289;BMP180;10303;51.960;8.372;2022-07-06T09:24:13;101416.00;;;20.80
20289;BMP180;10303;51.960;8.372;2022-07-06T09:26:40;101415.00;;;20.80
20289;BMP180;10303;51.960;8.372;2022-07-06T09:29:07;101414.00;;;20.80
20289;BMP180;10303;51.960;8.372;2022-07-06T09:31:33;101413.00;;;20.80
20289;BMP180;10303;51.960;8.372;2022-07-06T09:34:03;101415.00;;;20.90
20289;BMP180;10303;51.960;8.372;2022-07-06T09:36:47;101413.00;;;20.90
20289;BMP180;10303;51.960;8.372;2022-07-06T09:39:26;101409.00;;;21.10
20289;BMP180;10303;51.960;8.372;2022-07-06T09:41:58;101408.00;;;21.20
20289;BMP180;10303;51.960;8.372;2022-07-06T09:44:29;101404.00;;;21.40
20289;BMP180;10303;51.960;8.372;2022-07-06T09:46:59;101405.00;;;21.40
20289;BMP180;10303;51.960;8.372;2022-07-06T09:49:26;101408.00;;;21.50
20289;BMP180;10303;51.960;8.372;2022-07-06T09:51:56;101414.00;;;21.50
20289;BMP180;10303;51.960;8.372;2022-07-06T09:54:24;101411.00;;;21.50
20289;BMP180;10303;51.960;8.372;2022-07-06T09:56:52;101422.00;;;21.50
20289;BMP180;10303;51.960;8.372;2022-07-06T09:59:24;101414.00;;;21.40
20289;BMP180;10303;51.960;8.372;2022-07-06T10:01:56;101415.00;;;21.40
20289;BMP180;10303;51.960;8.372;2022-07-06T10:04:25;101409.00;;;21.40
20289;BMP180;10303;51.960;8.372;2022-07-06T10:06:53;101423.00;;;21.50
20289;BMP180;10303;51.960;8.372;2022-07-06T10:09:22;101406.00;;;21.50
20289;BMP180;10303;51.960;8.372;2022-07-06T10:11:54;101413.00;;;21.50
20289;BMP180;10303;51.960;8.372;2022-07-06T10:14:25;101414.00;;;21.50
20289;BMP180;10303;51.960;8.372;2022-07-06T10:16:51;101413.00;;;21.50
20289;BMP180;10303;51.960;8.372;2022-07-06T10:19:20;101412.00;;;21.50
20289;BMP180;10303;51.960;8.372;2022-07-06T10:21:48;101412.00;;;21.50
20289;BMP180;10303;51.960;8.372;2022-07-06T10:24:15;101410.00;;;21.50
20289;BMP180;10303;51.960;8.372;2022-07-06T10:26:43;101406.00;;;21.50
20289;BMP180;10303;51.960;8.372;2022-07-06T10:29:09;101409.00;;;21.40
20289;BMP180;10303;51.960;8.372;2022-07-06T10:31:45;101414.00;;;21.40
20289;BMP180;10303;51.960;8.372;2022-07-06T10:34:14;101410.00;;;21.40
20289;BMP180;10303;51.960;8.372;2022-07-06T10:36:47;101416.00;;;21.30
20289;BMP180;10303;51.960;8.372;2022-07-06T10:39:13;101429.00;;;21.30
20289;BMP180;10303;51.960;8.372;2022-07-06T10:41:58;101415.00;;;21.30
20289;BMP180;10303;51.960;8.372;2022-07-06T10:44:27;101407.00;;;21.30
20289;BMP180;10303;51.960;8.372;2022-07-06T10:46:55;101417.00;;;21.30
20289;BMP180;10303;51.960;8.372;2022-07-06T10:49:23;101411.00;;;21.40
20289;BMP180;10303;51.960;8.372;2022-07-06T10:51:49;101416.00;;;21.40
20289;BMP180;10303;51.960;8.372;2022-07-06T10:54:18;101406.00;;;21.50
20289;BMP180;10303;51.960;8.372;2022-07-06T10:56:47;101408.00;;;21.60
20289;BMP180;10303;51.960;8.372;2022-07-06T10:59:23;101416.00;;;21.80
20289;BMP180;10303;51.960;8.372;2022-07-06T11:02:18;101405.00;;;22.00
20289;BMP180;10303;51.960;8.372;2022-07-06T11:04:47;101405.00;;;22.10
20289;BMP180;10303;51.960;8.372;2022-07-06T11:07:19;101394.00;;;22.30
20289;BMP180;10303;51.960;8.372;2022-07-06T11:09:57;101395.00;;;22.40
20289;BMP180;10303;51.960;8.372;2022-07-06T11:12:24;101389.00;;;22.50
20289;BMP180;10303;51.960;8.372;2022-07-06T11:14:52;101395.00;;;22.50
20289;BMP180;10303;51.960;8.372;2022-07-06T11:17:20;101398.00;;;22.60
20289;BMP180;10303;51.960;8.372;2022-07-06T11:19:58;101396.00;;;22.50
20289;BMP180;10303;51.960;8.372;2022-07-06T11:22:26;101398.00;;;22.50
20289;BMP180;10303;51.960;8.372;2022-07-06T11:24:54;101403.00;;;22.50
20289;BMP180;10303;51.960;8.372;2022-07-06T11:27:23;101395.00;;;22.40
20289;BMP180;10303;51.960;8.372;2022-07-06T11:29:49;101401.00;;;22.40
20289;BMP180;10303;51.960;8.372;2022-07-06T11:32:25;101395.00;;;22.30
20289;BMP180;10303;51.960;8.372;2022-07-06T11:34:52;101390.00;;;22.20
20289;BMP180;10303;51.960;8.372;2022-07-06T11:37:19;101397.00;;;22.20
20289;BMP180;10303;51.960;8.372;2022-07-06T11:39:47;101389.00;;;22.10
20289;BMP180;10303;51.960;8.372;2022-07-06T11:42:17;101378.00;;;22.10
20289;BMP180;10303;51.960;8.372;2022-07-06T11:44:44;101387.00;;;22.20
20289;BMP180;10303;51.960;8.372;2022-07-06T11:47:12;101385.00;;;22.20
20289;BMP180;10303;51.960;8.372;2022-07-06T11:49:41;101377.00;;;22.30
20289;BMP180;10303;51.960;8.372;2022-07-06T11:52:12;101375.00;;;22.50
20289;BMP180;10303;51.960;8.372;2022-07-06T11:54:39;101378.00;;;22.70
20289;BMP180;10303;51.960;8.372;2022-07-06T11:57:09;101368.00;;;22.90
20289;BMP180;10303;51.960;8.372;2022-07-06T11:59:39;101362.00;;;23.10
20289;BMP180;10303;51.960;8.372;2022-07-06T12:02:11;101366.00;;;23.30
20289;BMP180;10303;51.960;8.372;2022-07-06T12:04:40;101368.00;;;23.50
20289;BMP180;10303;51.960;8.372;2022-07-06T12:07:15;101360.00;;;23.70
20289;BMP180;10303;51.960;8.372;2022-07-06T12:09:45;101364.00;;;24.00
20289;BMP180;10303;51.960;8.372;2022-07-06T12:12:11;101364.00;;;24.20
20289;BMP180;10303;51.960;8.372;2022-07-06T12:14:40;101363.00;;;24.30
20289;BMP180;10303;51.960;8.372;2022-07-06T12:17:14;101358.00;;;24.40
20289;BMP180;10303;51.960;8.372;2022-07-06T12:19:41;101350.00;;;24.70
20289;BMP180;10303;51.960;8.372;2022-07-06T12:22:09;101352.00;;;24.80
20289;BMP180;10303;51.960;8.372;2022-07-06T12:24:42;101349.00;;;24.80
20289;BMP180;10303;51.960;8.372;2022-07-06T12:27:16;101345.00;;;24.80
20289;BMP180;10303;51.960;8.372;2022-07-06T12:29:44;101341.00;;;24.80
20289;BMP180;10303;51.960;8.372;2022-07-06T12:32:19;101349.00;;;24.80
20289;BMP180;10303;51.960;8.372;2022-07-06T12:34:45;101337.00;;;24.80
20289;BMP180;10303;51.960;8.372;2022-07-06T12:37:12;101336.00;;;24.80
20289;BMP180;10303;51.960;8.372;2022-07-06T12:39:46;101333.00;;;24.90
20289;BMP180;10303;51.960;8.372;2022-07-06T12:42:17;101337.00;;;25.10
20289;BMP180;10303;51.960;8.372;2022-07-06T12:44:47;101327.00;;;25.30
20289;BMP180;10303;51.960;8.372;2022-07-06T12:47:22;101332.00;;;25.40
20289;BMP180;10303;51.960;8.372;2022-07-06T12:50:08;101329.00;;;25.30
20289;BMP180;10303;51.960;8.372;2022-07-06T12:52:34;101325.00;;;25.30
20289;BMP180;10303;51.960;8.372;2022-07-06T12:55:02;101326.00;;;25.20
20289;BMP180;10303;51.960;8.372;2022-07-06T12:57:47;101325.00;;;25.20
20289;BMP180;10303;51.960;8.372;2022-07-06T13:00:14;101324.00;;;25.20
20289;BMP180;10303;51.960;8.372;2022-07-06T13:02:40;101322.00;;;25.20
20289;BMP180;10303;51.960;8.372;2022-07-06T13:05:14;101331.00;;;25.00
20289;BMP180;10303;51.960;8.372;2022-07-06T13:07:47;101324.00;;;24.90
20289;BMP180;10303;51.960;8.372;2022-07-06T13:10:16;101326.00;;;24.90
20289;BMP180;10303;51.960;8.372;2022-07-06T13:12:43;101330.00;;;24.80
20289;BMP180;10303;51.960;8.372;2022-07-06T13:15:10;101324.00;;;24.70
20289;BMP180;10303;51.960;8.372;2022-07-06T13:17:36;101320.00;;;24.70
20289;BMP180;10303;51.960;8.372;2022-07-06T13:20:04;101316.00;;;24.70
20289;BMP180;10303;51.960;8.372;2022-07-06T13:22:30;101320.00;;;24.80
20289;BMP180;10303;51.960;8.372;2022-07-06T13:24:56;101318.00;;;24.90
20289;BMP180;10303;51.960;8.372;2022-07-06T13:27:22;101308.00;;;25.00
20289;BMP180;10303;51.960;8.372;2022-07-06T13:29:48;101305.00;;;25.20
20289;BMP180;10303;51.960;8.372;2022-07-06T13:32:14;101300.00;;;25.40
20289;BMP180;10303;51.960;8.372;2022-07-06T13:34:40;101300.00;;;25.50
20289;BMP180;10303;51.960;8.372;2022-07-06T13:37:06;101302.00;;;25.60
20289;BMP180;10303;51.960;8.372;2022-07-06T13:39:32;101300.00;;;25.70
20289;BMP180;10303;51.960;8.372;2022-07-06T13:41:58;101295.00;;;25.70
20289;BMP180;10303;51.960;8.372;2022-07-06T13:44:25;101295.00;;;25.70
20289;BMP180;10303;51.960;8.372;2022-07-06T13:46:51;101300.00;;;25.70
20289;BMP180;10303;51.960;8.372;2022-07-06T13:49:17;101290.00;;;25.80
20289;BMP180;10303;51.960;8.372;2022-07-06T13:51:43;101288.00;;;25.90
20289;BMP180;10303;51.960;8.372;2022-07-06T13:54:10;101282.00;;;26.00
20289;BMP180;10303;51.960;8.372;2022-07-06T13:56:38;101300.00;;;26.00
20289;BMP180;10303;51.960;8.372;2022-07-06T13:59:05;101292.00;;;26.00
20289;BMP180;10303;51.960;8.372;2022-07-06T14:01:31;101288.00;;;26.10